sensor_id;sensor_type;location;lat;lon;timestamp;P1;durP1;ratioP1;P2;durP2;ratioP2
27979;SDS011;15315;50.836;4.430;2023-05-27T00:07:31;22.92;;;4.97;;
27979;SDS011;15315;50.836;4.430;2023-05-27T00:17:31;30.52;;;5.43;;
27979;SDS011;15315;50.836;4.430;2023-05-27T00:27:33;23.73;;;5.18;;
27979;SDS011;15315;50.836;4.430;2023-05-27T00:37:33;23.20;;;5.43;;
27979;SDS011;15315;50.836;4.430;2023-05-27T00:47:35;21.95;;;5.20;;
27979;SDS011;15315;50.836;4.430;2023-05-27T00:57:35;22.10;;;5.10;;
27979;SDS011;15315;50.836;4.430;2023-05-27T01:17:36;27.42;;;5.15;;
27979;SDS011;15315;50.836;4.430;2023-05-27T01:27:42;23.38;;;5.78;;
27979;SDS011;15315;50.836;4.430;2023-05-27T01:37:42;20.58;;;5.10;;
27979;SDS011;15315;50.836;4.430;2023-05-27T01:47:45;24.80;;;5.38;;
27979;SDS011;15315;50.836;4.430;2023-05-27T01:57:45;24.50;;;5.07;;
27979;SDS011;15315;50.836;4.430;2023-05-27T02:07:46;27.55;;;5.47;;
27979;SDS011;15315;50.836;4.430;2023-05-27T02:17:46;24.55;;;5.45;;
27979;SDS011;15315;50.836;4.430;2023-05-27T02:27:51;21.73;;;5.78;;
27979;SDS011;15315;50.836;4.430;2023-05-27T02:37:52;21.60;;;5.63;;
27979;SDS011;15315;50.836;4.430;2023-05-27T02:47:52;23.20;;;5.53;;
27979;SDS011;15315;50.836;4.430;2023-05-27T02:57:55;24.77;;;5.95;;
27979;SDS011;15315;50.836;4.430;2023-05-27T03:07:55;25.88;;;6.78;;
27979;SDS011;15315;50.836;4.430;2023-05-27T03:17:56;24.75;;;5.60;;
27979;SDS011;15315;50.836;4.430;2023-05-27T03:27:56;21.85;;;5.25;;
27979;SDS011;15315;50.836;4.430;2023-05-27T03:37:57;23.83;;;4.97;;
27979;SDS011;15315;50.836;4.430;2023-05-27T03:47:57;26.77;;;6.18;;
27979;SDS011;15315;50.836;4.430;2023-05-27T03:57:57;22.88;;;5.93;;
27979;SDS011;15315;50.836;4.430;2023-05-27T04:07:58;21.60;;;5.53;;
27979;SDS011;15315;50.836;4.430;2023-05-27T04:17:58;25.77;;;5.80;;
27979;SDS011;15315;50.836;4.430;2023-05-27T04:27:59;24.77;;;5.82;;
27979;SDS011;15315;50.836;4.430;2023-05-27T04:37:59;27.48;;;5.60;;
27979;SDS011;15315;50.836;4.430;2023-05-27T04:48:01;25.83;;;6.97;;
27979;SDS011;15315;50.836;4.430;2023-05-27T04:58:01;27.08;;;6.25;;
27979;SDS011;15315;50.836;4.430;2023-05-27T05:08:05;30.42;;;7.30;;
27979;SDS011;15315;50.836;4.430;2023-05-27T05:18:06;34.05;;;6.55;;
27979;SDS011;15315;50.836;4.430;2023-05-27T05:28:06;32.95;;;6.95;;
27979;SDS011;15315;50.836;4.430;2023-05-27T05:38:06;31.73;;;8.90;;
27979;SDS011;15315;50.836;4.430;2023-05-27T05:48:07;26.02;;;7.40;;
27979;SDS011;15315;50.836;4.430;2023-05-27T05:58:07;28.50;;;7.70;;
27979;SDS011;15315;50.836;4.430;2023-05-27T06:08:08;22.85;;;6.85;;
27979;SDS011;15315;50.836;4.430;2023-05-27T06:18:08;24.17;;;7.43;;
27979;SDS011;15315;50.836;4.430;2023-05-27T06:28:08;25.65;;;7.07;;
27979;SDS011;15315;50.836;4.430;2023-05-27T06:38:09;29.98;;;7.80;;
27979;SDS011;15315;50.836;4.430;2023-05-27T06:48:09;40.40;;;8.95;;
27979;SDS011;15315;50.836;4.430;2023-05-27T06:58:10;25.98;;;8.43;;
27979;SDS011;15315;50.836;4.430;2023-05-27T07:08:10;26.00;;;8.10;;
27979;SDS011;15315;50.836;4.430;2023-05-27T07:18:12;55.38;;;9.00;;
27979;SDS011;15315;50.836;4.430;2023-05-27T07:28:13;30.60;;;8.15;;
27979;SDS011;15315;50.836;4.430;2023-05-27T07:38:13;29.05;;;8.07;;
27979;SDS011;15315;50.836;4.430;2023-05-27T07:48:13;29.52;;;7.75;;
27979;SDS011;15315;50.836;4.430;2023-05-27T07:58:14;32.35;;;7.75;;
27979;SDS011;15315;50.836;4.430;2023-05-27T08:08:14;27.75;;;9.23;;
27979;SDS011;15315;50.836;4.430;2023-05-27T08:18:15;30.17;;;8.70;;
27979;SDS011;15315;50.836;4.430;2023-05-27T08:28:15;23.48;;;7.65;;
27979;SDS011;15315;50.836;4.430;2023-05-27T08:38:16;45.33;;;7.43;;
27979;SDS011;15315;50.836;4.430;2023-05-27T08:48:16;23.55;;;6.93;;
27979;SDS011;15315;50.836;4.430;2023-05-27T08:58:17;27.42;;;7.47;;
27979;SDS011;15315;50.836;4.430;2023-05-27T09:08:18;22.45;;;6.72;;
27979;SDS011;15315;50.836;4.430;2023-05-27T09:18:24;26.17;;;7.43;;
27979;SDS011;15315;50.836;4.430;2023-05-27T09:28:29;26.58;;;7.85;;
27979;SDS011;15315;50.836;4.430;2023-05-27T09:38:30;22.63;;;7.28;;
27979;SDS011;15315;50.836;4.430;2023-05-27T09:48:31;27.45;;;7.18;;
27979;SDS011;15315;50.836;4.430;2023-05-27T09:58:32;22.98;;;6.78;;
27979;SDS011;15315;50.836;4.430;2023-05-27T10:08:32;31.40;;;6.45;;
27979;SDS011;15315;50.836;4.430;2023-05-27T10:18:33;23.58;;;6.47;;
27979;SDS011;15315;50.836;4.430;2023-05-27T10:28:37;24.75;;;6.35;;
27979;SDS011;15315;50.836;4.430;2023-05-27T10:38:43;27.98;;;6.93;;
27979;SDS011;15315;50.836;4.430;2023-05-27T10:49:21;22.70;;;5.75;;
27979;SDS011;15315;50.836;4.430;2023-05-27T10:59:23;23.63;;;6.55;;
27979;SDS011;15315;50.836;4.430;2023-05-27T11:09:23;25.15;;;6.88;;
27979;SDS011;15315;50.836;4.430;2023-05-27T11:19:24;28.52;;;6.70;;
27979;SDS011;15315;50.836;4.430;2023-05-27T11:29:24;16.98;;;5.13;;
27979;SDS011;15315;50.836;4.430;2023-05-27T11:39:27;28.52;;;7.03;;
27979;SDS011;15315;50.836;4.430;2023-05-27T11:49:27;23.02;;;6.20;;
27979;SDS011;15315;50.836;4.430;2023-05-27T11:59:28;16.75;;;4.72;;
27979;SDS011;15315;50.836;4.430;2023-05-27T12:09:29;20.95;;;5.32;;
27979;SDS011;15315;50.836;4.430;2023-05-27T12:19:29;18.80;;;4.80;;
27979;SDS011;15315;50.836;4.430;2023-05-27T12:29:34;17.33;;;5.50;;
27979;SDS011;15315;50.836;4.430;2023-05-27T12:39:34;13.90;;;5.57;;
27979;SDS011;15315;50.836;4.430;2023-05-27T12:49:35;23.90;;;5.75;;
27979;SDS011;15315;50.836;4.430;2023-05-27T12:59:36;26.27;;;6.03;;
27979;SDS011;15315;50.836;4.430;2023-05-27T13:09:37;14.20;;;5.13;;
27979;SDS011;15315;50.836;4.430;2023-05-27T13:19:38;16.52;;;4.93;;
27979;SDS011;15315;50.836;4.430;2023-05-27T13:29:39;15.73;;;5.40;;
27979;SDS011;15315;50.836;4.430;2023-05-27T13:39:41;16.23;;;4.80;;
27979;SDS011;15315;50.836;4.430;2023-05-27T13:49:42;15.18;;;4.80;;
27979;SDS011;15315;50.836;4.430;2023-05-27T13:59:43;20.60;;;8.18;;
27979;SDS011;15315;50.836;4.430;2023-05-27T14:09:43;14.02;;;4.45;;
27979;SDS011;15315;50.836;4.430;2023-05-27T14:19:44;24.65;;;4.97;;
27979;SDS011;15315;50.836;4.430;2023-05-27T14:29:44;16.88;;;4.20;;
27979;SDS011;15315;50.836;4.430;2023-05-27T14:39:45;13.38;;;5.32;;
27979;SDS011;15315;50.836;4.430;2023-05-27T14:49:45;17.88;;;4.68;;
27979;SDS011;15315;50.836;4.430;2023-05-27T14:59:45;15.93;;;4.85;;
27979;SDS011;15315;50.836;4.430;2023-05-27T15:09:46;16.52;;;5.45;;
27979;SDS011;15315;50.836;4.430;2023-05-27T15:19:46;15.10;;;4.93;;
27979;SDS011;15315;50.836;4.430;2023-05-27T15:29:46;12.90;;;4.68;;
27979;SDS011;15315;50.836;4.430;2023-05-27T15:39:47;21.67;;;5.32;;
27979;SDS011;15315;50.836;4.430;2023-05-27T15:49:47;14.68;;;5.10;;
27979;SDS011;15315;50.836;4.430;2023-05-27T15:59:48;18.33;;;5.82;;
27979;SDS011;15315;50.836;4.430;2023-05-27T16:09:50;16.80;;;6.20;;
27979;SDS011;15315;50.836;4.430;2023-05-27T16:19:50;13.83;;;8.17;;
27979;SDS011;15315;50.836;4.430;2023-05-27T16:29:51;18.98;;;10.05;;
27979;SDS011;15315;50.836;4.430;2023-05-27T16:39:52;13.80;;;9.90;;
27979;SDS011;15315;50.836;4.430;2023-05-27T16:49:52;17.13;;;10.88;;
27979;SDS011;15315;50.836;4.430;2023-05-27T16:59:53;15.20;;;10.50;;
27979;SDS011;15315;50.836;4.430;2023-05-27T17:09:53;14.57;;;10.60;;
27979;SDS011;15315;50.836;4.430;2023-05-27T17:19:54;17.67;;;9.57;;
27979;SDS011;15315;50.836;4.430;2023-05-27T17:29:54;15.80;;;8.63;;
27979;SDS011;15315;50.836;4.430;2023-05-27T17:39:55;15.20;;;8.18;;
27979;SDS011;15315;50.836;4.430;2023-05-27T17:49:55;14.80;;;8.20;;
27979;SDS011;15315;50.836;4.430;2023-05-27T17:59:57;13.30;;;6.97;;
27979;SDS011;15315;50.836;4.430;2023-05-27T18:09:57;19.33;;;5.07;;
27979;SDS011;15315;50.836;4.430;2023-05-27T18:19:57;26.23;;;5.75;;
27979;SDS011;15315;50.836;4.430;2023-05-27T18:29:58;17.10;;;5.80;;
27979;SDS011;15315;50.836;4.430;2023-05-27T18:39:58;15.10;;;5.68;;
27979;SDS011;15315;50.836;4.430;2023-05-27T18:49:59;17.63;;;5.57;;
27979;SDS011;15315;50.836;4.430;2023-05-27T18:59:59;20.17;;;5.25;;
27979;SDS011;15315;50.836;4.430;2023-05-27T19:10:00;19.80;;;5.30;;
27979;SDS011;15315;50.836;4.430;2023-05-27T19:20:01;17.53;;;5.77;;
27979;SDS011;15315;50.836;4.430;2023-05-27T19:30:03;13.73;;;5.90;;
27979;SDS011;15315;50.836;4.430;2023-05-27T19:40:04;22.45;;;6.05;;
27979;SDS011;15315;50.836;4.430;2023-05-27T19:50:05;17.05;;;6.07;;
27979;SDS011;15315;50.836;4.430;2023-05-27T20:00:06;18.85;;;6.45;;
27979;SDS011;15315;50.836;4.430;2023-05-27T20:10:09;14.27;;;5.43;;
27979;SDS011;15315;50.836;4.430;2023-05-27T20:20:10;19.48;;;6.45;;
27979;SDS011;15315;50.836;4.430;2023-05-27T20:30:11;14.00;;;7.07;;
27979;SDS011;15315;50.836;4.430;2023-05-27T20:40:12;16.13;;;6.57;;
27979;SDS011;15315;50.836;4.430;2023-05-27T20:50:12;26.90;;;7.30;;
27979;SDS011;15315;50.836;4.430;2023-05-27T21:00:13;21.77;;;7.25;;
27979;SDS011;15315;50.836;4.430;2023-05-27T21:10:15;32.05;;;7.60;;
27979;SDS011;15315;50.836;4.430;2023-05-27T21:20:16;16.42;;;6.65;;
27979;SDS011;15315;50.836;4.430;2023-05-27T21:30:17;15.97;;;6.13;;
27979;SDS011;15315;50.836;4.430;2023-05-27T21:40:17;19.45;;;7.15;;
27979;SDS011;15315;50.836;4.430;2023-05-27T21:50:18;15.52;;;6.38;;
27979;SDS011;15315;50.836;4.430;2023-05-27T22:00:18;18.25;;;6.88;;
27979;SDS011;15315;50.836;4.430;2023-05-27T22:10:20;23.42;;;6.93;;
27979;SDS011;15315;50.836;4.430;2023-05-27T22:20:20;16.40;;;7.60;;
27979;SDS011;15315;50.836;4.430;2023-05-27T22:30:20;19.33;;;7.03;;
27979;SDS011;15315;50.836;4.430;2023-05-27T22:40:21;22.95;;;8.25;;
27979;SDS011;15315;50.836;4.430;2023-05-27T22:50:21;19.15;;;7.40;;
27979;SDS011;15315;50.836;4.430;2023-05-27T23:00:22;23.40;;;7.13;;
27979;SDS011;15315;50.836;4.430;2023-05-27T23:10:22;18.63;;;7.10;;
27979;SDS011;15315;50.836;4.430;2023-05-27T23:20:25;22.33;;;7.20;;
27979;SDS011;15315;50.836;4.430;2023-05-27T23:30:25;16.27;;;7.23;;
27979;SDS011;15315;50.836;4.430;2023-05-27T23:40:26;19.58;;;7.00;;
27979;SDS011;15315;50.836;4.430;2023-05-27T23:50:26;18.33;;;7.38;;
